createdAt,value
2018-11-10T00:01:09.504Z,4.23
2018-11-10T00:03:37.832Z,4.03
2018-11-10T00:06:06.158Z,4.17
2018-11-10T00:08:34.813Z,3.40
2018-11-10T00:11:03.120Z,4.10
2018-11-10T00:13:32.112Z,3.83
2018-11-10T00:16:00.592Z,4.00
2018-11-10T00:18:29.308Z,4.10
2018-11-10T00:20:57.609Z,3.40
2018-11-10T00:23:26.242Z,3.70
2018-11-10T00:25:54.532Z,3.80
2018-11-10T00:28:24.452Z,3.43
2018-11-10T00:30:53.118Z,3.50
2018-11-10T00:33:21.622Z,3.60
2018-11-10T00:35:50.805Z,3.03
2018-11-10T00:38:19.377Z,3.10
2018-11-10T00:40:48.365Z,3.17
2018-11-10T00:43:16.713Z,2.90
2018-11-10T00:45:45.269Z,3.27
2018-11-10T00:48:14.513Z,3.10
2018-11-10T00:50:42.840Z,3.10
2018-11-10T00:53:12.179Z,2.93
2018-11-10T00:55:40.625Z,2.93
2018-11-10T00:58:09.395Z,3.00
2018-11-10T01:00:38.777Z,3.00
2018-11-10T01:03:07.209Z,2.97
2018-11-10T01:05:36.129Z,3.53
2018-11-10T01:08:05.050Z,2.80
2018-11-10T01:10:33.753Z,2.90
2018-11-10T01:13:02.060Z,3.00
2018-11-10T01:15:30.721Z,2.80
2018-11-10T01:17:59.649Z,2.47
2018-11-10T01:20:27.955Z,2.87
2018-11-10T01:22:56.554Z,2.80
2018-11-10T01:25:24.905Z,2.70
2018-11-10T01:27:53.332Z,2.73
2018-11-10T01:30:22.596Z,2.60
2018-11-10T01:32:53.282Z,2.77
2018-11-10T01:35:21.597Z,2.93
2018-11-10T01:37:50.160Z,3.00
2018-11-10T01:40:18.512Z,2.70
2018-11-10T01:42:46.796Z,2.60
2018-11-10T01:45:16.352Z,2.50
2018-11-10T01:47:45.044Z,2.43
2018-11-10T01:50:13.359Z,2.20
2018-11-10T01:52:42.275Z,2.70
2018-11-10T01:55:11.340Z,2.67
2018-11-10T01:57:40.392Z,2.57
2018-11-10T02:00:17.517Z,2.60
2018-11-10T02:02:46.462Z,3.00
2018-11-10T02:05:15.150Z,2.43
2018-11-10T02:07:44.014Z,2.33
2018-11-10T02:10:12.726Z,2.60
2018-11-10T02:12:41.184Z,2.40
2018-11-10T02:15:12.460Z,2.13
2018-11-10T02:17:40.780Z,2.37
2018-11-10T02:20:10.592Z,2.30
2018-11-10T02:22:39.344Z,2.40
2018-11-10T02:25:09.038Z,2.23
2018-11-10T02:27:37.350Z,2.03
2018-11-10T02:30:07.714Z,2.30
2018-11-10T02:32:36.035Z,2.13
2018-11-10T02:35:05.111Z,2.23
2018-11-10T02:37:33.975Z,2.20
2018-11-10T02:40:02.290Z,2.00
2018-11-10T02:42:30.584Z,2.20
2018-11-10T02:44:59.173Z,2.10
2018-11-10T02:47:27.469Z,2.30
2018-11-10T02:49:55.766Z,2.33
2018-11-10T02:52:24.796Z,2.10
2018-11-10T02:54:53.103Z,2.50
2018-11-10T02:57:21.374Z,2.03
2018-11-10T02:59:50.026Z,2.20
2018-11-10T03:02:18.343Z,2.03
2018-11-10T03:04:46.956Z,2.10
2018-11-10T03:07:15.669Z,2.30
2018-11-10T03:09:43.944Z,2.23
2018-11-10T03:12:12.503Z,2.00
2018-11-10T03:14:41.365Z,2.40
2018-11-10T03:17:09.706Z,1.90
2018-11-10T03:19:38.008Z,2.13
2018-11-10T03:22:07.013Z,2.10
2018-11-10T03:24:35.358Z,1.77
2018-11-10T03:27:03.656Z,2.13
2018-11-10T03:29:32.465Z,2.07
2018-11-10T03:32:00.812Z,2.00
2018-11-10T03:34:29.119Z,1.90
2018-11-10T03:36:57.649Z,1.80
2018-11-10T03:39:25.935Z,1.90
2018-11-10T03:41:54.212Z,1.80
2018-11-10T03:44:22.985Z,2.00
2018-11-10T03:46:51.268Z,2.30
2018-11-10T03:49:20.524Z,1.90
2018-11-10T03:51:49.152Z,2.20
2018-11-10T03:54:17.481Z,2.30
2018-11-10T03:56:45.976Z,1.90
2018-11-10T03:59:15.258Z,1.83
2018-11-10T04:01:43.550Z,2.00
2018-11-10T04:04:11.851Z,2.00
2018-11-10T04:06:40.514Z,1.70
2018-11-10T04:09:08.814Z,1.90
2018-11-10T04:11:37.121Z,1.80
2018-11-10T04:14:10.785Z,1.70
2018-11-10T04:16:39.092Z,1.63
2018-11-10T04:19:07.448Z,2.10
2018-11-10T04:21:36.110Z,2.00
2018-11-10T04:24:05.408Z,2.03
2018-11-10T04:26:34.060Z,1.90
2018-11-10T04:29:02.964Z,1.80
2018-11-10T04:31:31.322Z,1.90
2018-11-10T04:33:59.640Z,2.07
2018-11-10T04:36:28.362Z,2.00
2018-11-10T04:38:56.668Z,2.00
2018-11-10T04:41:25.156Z,1.83
2018-11-10T04:43:53.812Z,1.47
2018-11-10T04:46:22.112Z,1.73
2018-11-10T04:48:50.576Z,1.57
2018-11-10T04:51:19.249Z,1.60
2018-11-10T04:53:47.552Z,1.80
2018-11-10T04:56:16.031Z,1.50
2018-11-10T04:58:44.689Z,1.50
2018-11-10T05:01:13.566Z,1.43
2018-11-10T05:03:42.088Z,1.70
2018-11-10T05:06:10.735Z,1.60
2018-11-10T05:08:39.019Z,1.80
2018-11-10T05:11:07.540Z,1.80
2018-11-10T05:13:36.636Z,1.73
2018-11-10T05:16:04.962Z,1.70
2018-11-10T05:18:33.385Z,2.10
2018-11-10T05:21:01.913Z,1.70
2018-11-10T05:23:30.725Z,1.90
2018-11-10T05:26:00.550Z,1.70
2018-11-10T05:28:29.139Z,1.80
2018-11-10T05:30:57.431Z,1.80
2018-11-10T05:33:26.185Z,1.83
2018-11-10T05:35:54.763Z,1.80
2018-11-10T05:38:23.053Z,1.90
2018-11-10T05:40:51.541Z,1.63
2018-11-10T05:43:20.242Z,1.70
2018-11-10T05:45:49.409Z,1.80
2018-11-10T05:48:18.481Z,2.00
2018-11-10T05:50:47.084Z,2.00
2018-11-10T05:53:15.357Z,1.83
2018-11-10T05:55:43.715Z,1.70
2018-11-10T05:58:12.320Z,1.80
2018-11-10T06:00:40.590Z,1.70
2018-11-10T06:03:08.976Z,1.50
2018-11-10T06:05:37.566Z,1.60
2018-11-10T06:08:06.532Z,1.47
2018-11-10T06:10:35.034Z,1.50
2018-11-10T06:13:03.403Z,1.70
2018-11-10T06:15:31.702Z,1.73
2018-11-10T06:18:00.312Z,1.50
2018-11-10T06:20:28.850Z,1.30
2018-11-10T06:22:57.164Z,1.60
2018-11-10T06:25:25.652Z,1.50
2018-11-10T06:27:54.296Z,1.70
2018-11-10T06:30:22.701Z,1.43
2018-11-10T06:32:51.332Z,1.63
2018-11-10T06:35:19.754Z,1.30
2018-11-10T06:37:48.497Z,1.47
2018-11-10T06:40:17.134Z,1.40
2018-11-10T06:42:45.664Z,1.50
2018-11-10T06:45:13.953Z,1.30
2018-11-10T06:47:42.684Z,1.73
2018-11-10T06:50:11.613Z,1.50
2018-11-10T06:52:39.907Z,1.30
2018-11-10T06:55:09.205Z,1.17
2018-11-10T06:57:37.720Z,1.80
2018-11-10T07:00:15.174Z,1.30
2018-11-10T07:02:43.913Z,1.33
2018-11-10T07:05:12.657Z,1.33
2018-11-10T07:07:42.265Z,1.50
2018-11-10T07:10:11.167Z,1.60
2018-11-10T07:12:39.497Z,2.07
2018-11-10T07:15:08.985Z,1.43
2018-11-10T07:17:38.093Z,1.77
2018-11-10T07:20:06.917Z,1.60
2018-11-10T07:22:35.990Z,1.90
2018-11-10T07:25:05.155Z,1.80
2018-11-10T07:27:33.509Z,1.33
2018-11-10T07:30:01.818Z,1.87
2018-11-10T07:32:30.374Z,1.60
2018-11-10T07:34:58.752Z,1.40
2018-11-10T07:37:27.407Z,1.50
2018-11-10T07:39:55.860Z,1.80
2018-11-10T07:42:24.162Z,1.67
2018-11-10T07:44:52.611Z,1.80
2018-11-10T07:47:21.150Z,1.63
2018-11-10T07:49:49.416Z,1.80
2018-11-10T07:52:18.596Z,1.67
2018-11-10T07:54:47.168Z,2.20
2018-11-10T07:57:15.407Z,1.73
2018-11-10T07:59:43.897Z,1.77
2018-11-10T08:02:12.551Z,2.87
2018-11-10T08:04:41.802Z,1.93
2018-11-10T08:07:10.193Z,1.70
2018-11-10T08:09:38.829Z,2.20
2018-11-10T08:12:07.174Z,1.60
2018-11-10T08:14:35.506Z,2.13
2018-11-10T08:17:04.048Z,1.83
2018-11-10T08:19:32.515Z,1.70
2018-11-10T08:22:01.038Z,1.60
2018-11-10T08:24:31.396Z,1.60
2018-11-10T08:26:59.690Z,1.80
2018-11-10T08:29:28.525Z,1.53
2018-11-10T08:31:57.019Z,1.60
2018-11-10T08:34:25.340Z,1.60
2018-11-10T08:36:53.690Z,1.47
2018-11-10T08:39:22.354Z,1.43
2018-11-10T08:41:50.609Z,1.40
2018-11-10T08:44:18.909Z,1.70
2018-11-10T08:46:47.392Z,1.67
2018-11-10T08:49:15.875Z,1.70
2018-11-10T08:51:44.136Z,1.07
2018-11-10T08:54:12.514Z,1.40
2018-11-10T08:56:40.867Z,1.43
2018-11-10T08:59:09.447Z,1.37
2018-11-10T09:01:37.840Z,1.50
2018-11-10T09:04:06.597Z,1.30
2018-11-10T09:06:35.344Z,1.40
2018-11-10T09:09:04.088Z,1.50
2018-11-10T09:11:33.406Z,1.60
2018-11-10T09:14:01.857Z,1.40
2018-11-10T09:16:30.493Z,1.63
2018-11-10T09:19:01.186Z,1.37
2018-11-10T09:21:29.798Z,1.23
2018-11-10T09:23:58.991Z,1.30
2018-11-10T09:26:28.377Z,1.70
2018-11-10T09:28:56.932Z,1.30
2018-11-10T09:31:25.583Z,1.50
2018-11-10T09:33:55.337Z,1.60
2018-11-10T09:36:24.379Z,1.80
2018-11-10T09:38:53.221Z,1.70
2018-11-10T09:41:21.853Z,1.63
2018-11-10T09:43:50.392Z,1.33
2018-11-10T09:46:18.978Z,1.50
2018-11-10T09:48:47.420Z,1.23
2018-11-10T09:51:15.827Z,1.90
2018-11-10T09:53:44.318Z,1.40
2018-11-10T09:56:12.613Z,1.60
2018-11-10T09:58:41.075Z,1.77
2018-11-10T10:01:09.747Z,1.57
2018-11-10T10:03:38.668Z,1.60
2018-11-10T10:06:07.734Z,1.43
2018-11-10T10:08:36.513Z,1.40
2018-11-10T10:11:05.824Z,1.40
2018-11-10T10:13:34.159Z,1.70
2018-11-10T10:16:03.347Z,1.60
2018-11-10T10:18:31.647Z,1.47
2018-11-10T10:21:00.318Z,1.80
2018-11-10T10:23:29.025Z,1.80
2018-11-10T10:25:57.460Z,1.93
2018-11-10T10:28:26.823Z,1.67
2018-11-10T10:30:55.418Z,1.50
2018-11-10T10:33:23.750Z,1.50
2018-11-10T10:35:52.249Z,1.63
2018-11-10T10:38:20.814Z,1.80
2018-11-10T10:40:49.576Z,1.60
2018-11-10T10:43:18.040Z,1.60
2018-11-10T10:45:46.604Z,1.57
2018-11-10T10:48:15.034Z,1.60
2018-11-10T10:50:43.442Z,1.73
2018-11-10T10:53:12.081Z,1.57
2018-11-10T10:55:40.426Z,1.73
2018-11-10T10:58:08.920Z,1.80
2018-11-10T11:00:42.717Z,2.10
2018-11-10T11:03:16.458Z,1.40
2018-11-10T11:05:49.494Z,1.53
2018-11-10T11:08:17.860Z,1.40
2018-11-10T11:10:46.373Z,1.50
2018-11-10T11:13:14.922Z,1.40
2018-11-10T11:15:43.959Z,1.53
2018-11-10T11:18:12.493Z,1.50
2018-11-10T11:20:41.210Z,1.63
2018-11-10T11:23:09.552Z,1.43
2018-11-10T11:25:38.103Z,1.63
2018-11-10T11:28:06.620Z,1.70
2018-11-10T11:30:34.985Z,1.60
2018-11-10T11:33:03.578Z,1.40
2018-11-10T11:35:32.065Z,1.40
2018-11-10T11:38:00.445Z,1.60
2018-11-10T11:40:29.907Z,1.40
2018-11-10T11:42:58.539Z,1.47
2018-11-10T11:45:26.955Z,1.03
2018-11-10T11:47:55.596Z,1.53
2018-11-10T11:50:24.033Z,1.50
2018-11-10T11:52:52.373Z,1.40
2018-11-10T11:55:21.707Z,1.47
2018-11-10T11:57:50.417Z,1.30
2018-11-10T12:00:19.726Z,1.70
2018-11-10T12:02:48.337Z,1.60
2018-11-10T12:05:17.905Z,1.27
2018-11-10T12:07:46.905Z,1.37
2018-11-10T12:10:16.018Z,1.40
2018-11-10T12:12:46.085Z,1.13
2018-11-10T12:15:15.703Z,1.13
2018-11-10T12:17:44.159Z,1.40
2018-11-10T12:20:13.834Z,1.30
2018-11-10T12:22:42.546Z,1.40
2018-11-10T12:25:11.851Z,1.20
2018-11-10T12:27:41.100Z,1.73
2018-11-10T12:30:10.977Z,1.40
2018-11-10T12:32:39.796Z,1.80
2018-11-10T12:35:09.407Z,1.67
2018-11-10T12:37:37.834Z,1.50
2018-11-10T12:40:09.294Z,1.57
2018-11-10T12:42:38.322Z,1.70
2018-11-10T12:45:08.344Z,1.70
2018-11-10T12:47:36.835Z,1.60
2018-11-10T12:50:06.226Z,1.40
2018-11-10T12:52:34.546Z,1.33
2018-11-10T12:55:02.957Z,1.47
2018-11-10T12:57:31.526Z,1.40
2018-11-10T12:59:59.930Z,1.53
2018-11-10T13:02:28.288Z,1.80
2018-11-10T13:04:56.982Z,1.97
2018-11-10T13:07:25.359Z,2.00
2018-11-10T13:09:53.720Z,2.00
2018-11-10T13:12:22.566Z,2.70
2018-11-10T13:14:50.876Z,2.33
2018-11-10T13:17:19.285Z,2.40
2018-11-10T13:19:48.035Z,2.43
2018-11-10T13:22:17.090Z,2.80
2018-11-10T13:24:45.461Z,2.80
2018-11-10T13:27:14.124Z,3.00
2018-11-10T13:29:42.478Z,2.97
2018-11-10T13:32:10.865Z,3.00
2018-11-10T13:34:39.631Z,2.97
2018-11-10T13:37:08.147Z,3.03
2018-11-10T13:39:36.532Z,2.70
2018-11-10T13:42:05.660Z,2.73
2018-11-10T13:44:34.165Z,2.53
2018-11-10T13:47:02.538Z,2.67
2018-11-10T13:49:31.048Z,2.43
2018-11-10T13:51:59.877Z,2.30
2018-11-10T13:54:28.011Z,2.67
2018-11-10T13:57:01.710Z,2.10
2018-11-10T13:59:30.203Z,1.70
2018-11-10T14:01:58.646Z,1.87
2018-11-10T14:04:27.189Z,2.23
2018-11-10T14:06:55.605Z,2.40
2018-11-10T14:09:24.229Z,2.43
2018-11-10T14:11:52.773Z,2.67
2018-11-10T14:14:21.118Z,2.73
2018-11-10T14:16:49.822Z,2.70
2018-11-10T14:19:18.971Z,2.90
2018-11-10T14:21:47.284Z,2.97
2018-11-10T14:24:15.841Z,3.00
2018-11-10T14:26:45.487Z,2.80
2018-11-10T14:29:13.826Z,2.57
2018-11-10T14:31:42.511Z,2.30
2018-11-10T14:34:11.421Z,2.57
2018-11-10T14:36:39.827Z,2.03
2018-11-10T14:39:10.898Z,2.13
2018-11-10T14:41:40.424Z,2.03
2018-11-10T14:44:09.439Z,1.80
2018-11-10T14:46:38.561Z,1.60
2018-11-10T14:49:07.593Z,1.80
2018-11-10T14:51:36.760Z,1.70
2018-11-10T14:54:05.253Z,2.00
2018-11-10T14:56:33.943Z,1.70
2018-11-10T14:59:02.278Z,1.70
2018-11-10T15:01:31.125Z,1.50
2018-11-10T15:04:00.396Z,1.50
2018-11-10T15:06:28.801Z,1.43
2018-11-10T15:08:57.826Z,1.30
2018-11-10T15:11:29.364Z,1.33
2018-11-10T15:13:58.304Z,1.33
2018-11-10T15:16:26.832Z,1.50
2018-11-10T15:18:56.812Z,1.40
2018-11-10T15:21:25.702Z,1.60
2018-11-10T15:23:54.612Z,1.60
2018-11-10T15:26:23.199Z,1.60
2018-11-10T15:28:51.789Z,1.43
2018-11-10T15:31:20.506Z,1.30
2018-11-10T15:33:49.062Z,1.30
2018-11-10T15:36:17.808Z,1.10
2018-11-10T15:38:47.007Z,1.33
2018-11-10T15:41:15.807Z,1.10
2018-11-10T15:43:44.496Z,1.20
2018-11-10T15:46:12.949Z,1.50
2018-11-10T15:48:41.521Z,1.53
2018-11-10T15:51:09.946Z,1.70
2018-11-10T15:53:38.548Z,1.43
2018-11-10T15:56:07.053Z,1.70
2018-11-10T15:58:36.540Z,1.90
2018-11-10T16:01:05.090Z,1.80
2018-11-10T16:03:34.848Z,2.07
2018-11-10T16:06:03.547Z,1.93
2018-11-10T16:08:32.047Z,1.83
2018-11-10T16:11:00.729Z,1.90
2018-11-10T16:13:30.012Z,1.90
2018-11-10T16:15:58.477Z,2.00
2018-11-10T16:18:27.453Z,1.63
2018-11-10T16:20:56.047Z,2.23
2018-11-10T16:23:25.944Z,2.07
2018-11-10T16:25:54.659Z,1.77
2018-11-10T16:28:23.500Z,1.80
2018-11-10T16:30:52.034Z,1.90
2018-11-10T16:33:20.577Z,2.00
2018-11-10T16:35:48.915Z,1.80
2018-11-10T16:38:17.402Z,1.77
2018-11-10T16:40:46.195Z,1.70
2018-11-10T16:43:14.524Z,1.40
2018-11-10T16:45:43.115Z,1.13
2018-11-10T16:48:11.645Z,1.30
2018-11-10T16:50:40.347Z,1.33
2018-11-10T16:53:09.025Z,1.03
2018-11-10T16:55:37.549Z,1.10
2018-11-10T16:58:06.367Z,0.90
2018-11-10T17:00:34.752Z,1.33
2018-11-10T17:03:03.752Z,1.40
2018-11-10T17:05:32.115Z,1.33
2018-11-10T17:08:00.572Z,1.43
2018-11-10T17:10:29.240Z,1.60
2018-11-10T17:12:57.568Z,1.70
2018-11-10T17:15:27.083Z,1.70
2018-11-10T17:17:55.904Z,2.00
2018-11-10T17:20:24.977Z,2.33
2018-11-10T17:22:53.521Z,2.20
2018-11-10T17:25:22.005Z,2.20
2018-11-10T17:27:51.267Z,2.20
2018-11-10T17:30:20.839Z,2.30
2018-11-10T17:32:50.048Z,2.23
2018-11-10T17:35:18.499Z,2.80
2018-11-10T17:37:47.467Z,2.70
2018-11-10T17:40:16.351Z,2.33
2018-11-10T17:42:44.641Z,2.40
2018-11-10T17:45:14.416Z,2.10
2018-11-10T17:47:43.256Z,2.40
2018-11-10T17:50:13.298Z,2.80
2018-11-10T17:52:41.932Z,2.57
2018-11-10T17:55:12.101Z,2.40
2018-11-10T17:57:41.140Z,2.30
2018-11-10T18:00:10.447Z,2.40
2018-11-10T18:02:40.124Z,2.40
2018-11-10T18:05:10.965Z,2.50
2018-11-10T18:07:39.352Z,2.40
2018-11-10T18:10:09.687Z,2.73
2018-11-10T18:12:38.015Z,2.50
2018-11-10T18:15:07.837Z,2.40
2018-11-10T18:17:36.387Z,3.00
2018-11-10T18:20:05.045Z,3.00
2018-11-10T18:22:33.406Z,3.10
2018-11-10T18:25:02.071Z,3.00
2018-11-10T18:27:30.393Z,2.80
2018-11-10T18:29:58.753Z,2.83
2018-11-10T18:32:27.390Z,3.07
2018-11-10T18:34:55.701Z,2.70
2018-11-10T18:37:24.171Z,2.60
2018-11-10T18:39:52.699Z,2.70
2018-11-10T18:42:21.145Z,2.87
2018-11-10T18:44:49.693Z,2.60
2018-11-10T18:47:18.159Z,2.60
2018-11-10T18:49:46.543Z,3.00
2018-11-10T18:52:15.080Z,2.57
2018-11-10T18:54:43.701Z,2.60
2018-11-10T18:57:12.214Z,2.50
2018-11-10T18:59:40.743Z,2.23
2018-11-10T19:02:09.202Z,2.90
2018-11-10T19:04:37.557Z,2.90
2018-11-10T19:07:06.120Z,2.63
2018-11-10T19:09:34.686Z,2.70
2018-11-10T19:12:03.053Z,2.50
2018-11-10T19:14:31.706Z,2.60
2018-11-10T19:17:00.397Z,2.50
2018-11-10T19:19:28.717Z,2.37
2018-11-10T19:21:57.115Z,2.73
2018-11-10T19:24:25.572Z,2.37
2018-11-10T19:26:53.972Z,1.93
2018-11-10T19:29:22.630Z,2.23
2018-11-10T19:31:51.159Z,2.10
2018-11-10T19:34:19.602Z,2.10
2018-11-10T19:36:48.016Z,2.27
2018-11-10T19:39:16.592Z,2.03
2018-11-10T19:41:44.971Z,2.13
2018-11-10T19:44:13.448Z,1.93
2018-11-10T19:46:41.941Z,2.00
2018-11-10T19:49:10.639Z,2.07
2018-11-10T19:51:39.219Z,2.43
2018-11-10T19:54:07.691Z,2.20
2018-11-10T19:56:36.128Z,1.93
2018-11-10T19:59:04.619Z,2.10
2018-11-10T20:01:33.209Z,1.90
2018-11-10T20:04:02.422Z,2.03
2018-11-10T20:06:31.205Z,2.03
2018-11-10T20:09:00.704Z,1.87
2018-11-10T20:11:29.059Z,2.10
2018-11-10T20:13:57.801Z,1.90
2018-11-10T20:16:26.367Z,2.07
2018-11-10T20:18:54.776Z,1.90
2018-11-10T20:21:29.649Z,1.70
2018-11-10T20:23:58.025Z,1.80
2018-11-10T20:26:26.373Z,1.90
2018-11-10T20:28:54.869Z,2.00
2018-11-10T20:31:23.258Z,2.07
2018-11-10T20:33:51.605Z,1.67
2018-11-10T20:36:20.163Z,1.93
2018-11-10T20:38:48.570Z,2.10
2018-11-10T20:41:17.009Z,1.83
2018-11-10T20:43:45.553Z,1.80
2018-11-10T20:46:13.937Z,2.20
2018-11-10T20:48:42.937Z,2.10
2018-11-10T20:51:11.613Z,1.80
2018-11-10T20:53:40.043Z,1.57
2018-11-10T20:56:08.435Z,1.60
2018-11-10T20:58:36.995Z,1.70
2018-11-10T21:01:05.478Z,1.57
2018-11-10T21:03:33.930Z,1.67
2018-11-10T21:06:03.191Z,2.00
2018-11-10T21:08:31.771Z,1.60
2018-11-10T21:11:00.162Z,1.43
2018-11-10T21:13:28.892Z,1.60
2018-11-10T21:15:57.251Z,1.60
2018-11-10T21:18:25.837Z,1.90
2018-11-10T21:20:54.529Z,1.77
2018-11-10T21:23:22.949Z,1.70
2018-11-10T21:25:51.258Z,1.90
2018-11-10T21:28:19.921Z,1.90
2018-11-10T21:30:48.321Z,1.70
2018-11-10T21:33:16.757Z,3.00
2018-11-10T21:35:45.331Z,2.10
2018-11-10T21:38:14.267Z,1.90
2018-11-10T21:40:42.648Z,2.00
2018-11-10T21:43:11.706Z,2.17
2018-11-10T21:45:40.036Z,2.10
2018-11-10T21:48:08.393Z,2.30
2018-11-10T21:50:37.266Z,1.70
2018-11-10T21:53:05.690Z,2.10
2018-11-10T21:55:34.050Z,2.10
2018-11-10T21:58:02.644Z,2.20
2018-11-10T22:00:30.952Z,2.10
2018-11-10T22:02:59.371Z,2.33
2018-11-10T22:05:27.919Z,1.70
2018-11-10T22:07:57.161Z,2.13
2018-11-10T22:10:25.608Z,2.17
2018-11-10T22:12:54.177Z,2.40
2018-11-10T22:15:23.186Z,1.90
2018-11-10T22:17:51.625Z,2.27
2018-11-10T22:20:21.745Z,1.90
2018-11-10T22:22:50.220Z,2.20
2018-11-10T22:25:18.601Z,2.10
2018-11-10T22:27:48.364Z,2.43
2018-11-10T22:30:18.075Z,2.27
2018-11-10T22:32:47.194Z,2.07
2018-11-10T22:35:16.080Z,2.10
2018-11-10T22:37:44.687Z,2.10
2018-11-10T22:40:16.341Z,2.30
2018-11-10T22:42:45.377Z,2.37
2018-11-10T22:45:15.156Z,2.50
2018-11-10T22:47:43.740Z,2.70
2018-11-10T22:50:15.401Z,2.70
2018-11-10T22:52:44.025Z,2.63
2018-11-10T22:55:12.381Z,2.80
2018-11-10T22:57:40.958Z,2.63
2018-11-10T23:00:16.163Z,2.97
2018-11-10T23:02:49.380Z,2.70
2018-11-10T23:05:18.689Z,3.00
2018-11-10T23:07:47.096Z,2.80
2018-11-10T23:10:15.937Z,2.87
2018-11-10T23:12:45.645Z,2.77
2018-11-10T23:15:14.133Z,3.40
2018-11-10T23:17:42.520Z,2.90
2018-11-10T23:20:13.034Z,3.73
2018-11-10T23:22:41.541Z,3.30
2018-11-10T23:25:13.054Z,3.30
2018-11-10T23:27:41.705Z,2.87
2018-11-10T23:30:13.414Z,3.23
2018-11-10T23:32:42.252Z,3.17
2018-11-10T23:35:11.408Z,2.93
2018-11-10T23:37:40.197Z,3.33
2018-11-10T23:40:11.534Z,3.10
2018-11-10T23:42:40.254Z,2.87
2018-11-10T23:45:08.982Z,2.70
2018-11-10T23:47:37.940Z,3.50
2018-11-10T23:50:07.626Z,2.93
2018-11-10T23:52:36.076Z,2.73
2018-11-10T23:55:04.777Z,3.20
2018-11-10T23:57:33.160Z,3.13
